Time;durP1;ratioP1;P1;durP2;ratioP2;P2;SDS_P1;SDS_P2;PMS_P1;PMS_P2;Temp;Humidity;BMP_temperature;BMP_pressure;BME280_temperature;BME280_humidity;BME280_pressure;Samples;Min_cycle;Max_cycle;Signal;HPM_P1;HPM_P2
2023/01/04 00:01:21;;;;;;;7.70;6.00;;;;;;;;;;5075338;28;20240;-59
2023/01/04 00:03:47;;;;;;;8.80;6.03;;;;;;;;;;5078141;28;20235;-58
2023/01/04 00:06:16;;;;;;;7.80;6.00;;;;;;;;;;5083238;28;20751;-59
2023/01/04 00:08:42;;;;;;;7.83;5.83;;;;;;;;;;5084184;28;20247;-57
2023/01/04 00:11:11;;;;;;;6.00;5.23;;;;;;;;;;5073257;28;20335;-59
2023/01/04 00:13:38;;;;;;;5.00;4.50;;;;;;;;;;5076899;28;20241;-59
2023/01/04 00:16:06;;;;;;;6.63;5.17;;;;;;;;;;5073780;28;22196;-58
2023/01/04 00:18:32;;;;;;;6.90;5.60;;;;;;;;;;5079015;28;20223;-59
2023/01/04 00:21:06;;;;;;;6.23;5.30;;;;;;;;;;5076613;28;20334;-58
2023/01/04 00:23:34;;;;;;;7.20;6.50;;;;;;;;;;5078545;28;20262;-58
2023/01/04 00:26:00;;;;;;;6.27;5.27;;;;;;;;;;5083015;28;20234;-58
2023/01/04 00:28:27;;;;;;;6.03;5.43;;;;;;;;;;5077726;28;20704;-58
2023/01/04 00:30:53;;;;;;;8.17;5.50;;;;;;;;;;5073571;28;20232;-58
2023/01/04 00:33:20;;;;;;;5.60;5.00;;;;;;;;;;5070535;28;20245;-65
2023/01/04 00:35:46;;;;;;;7.07;5.07;;;;;;;;;;5084367;28;20250;-59
2023/01/04 00:38:12;;;;;;;6.07;5.40;;;;;;;;;;5081155;28;20346;-58
2023/01/04 00:40:40;;;;;;;6.83;5.20;;;;;;;;;;5082114;28;20254;-59
2023/01/04 00:43:07;;;;;;;6.73;5.70;;;;;;;;;;5068731;28;20235;-59
2023/01/04 00:45:33;;;;;;;6.60;5.90;;;;;;;;;;5081132;28;20239;-58
2023/01/04 00:47:59;;;;;;;6.73;6.03;;;;;;;;;;5076382;28;20237;-58
2023/01/04 00:50:26;;;;;;;6.03;5.23;;;;;;;;;;5082296;28;20251;-59
2023/01/04 00:52:52;;;;;;;5.40;4.90;;;;;;;;;;5076731;28;20288;-59
2023/01/04 00:55:19;;;;;;;6.37;4.87;;;;;;;;;;5084184;28;20283;-60
2023/01/04 00:57:46;;;;;;;7.13;5.07;;;;;;;;;;5083569;28;20258;-59
2023/01/04 01:00:13;;;;;;;8.07;5.70;;;;;;;;;;5077916;28;20237;-58
2023/01/04 01:02:40;;;;;;;6.10;5.50;;;;;;;;;;5072614;28;20243;-58
2023/01/04 01:05:07;;;;;;;7.77;6.03;;;;;;;;;;5080829;28;20313;-58
2023/01/04 01:07:33;;;;;;;9.73;5.40;;;;;;;;;;5078622;28;20236;-58
2023/01/04 01:10:00;;;;;;;6.47;4.73;;;;;;;;;;5070709;28;20604;-60
2023/01/04 01:12:26;;;;;;;6.30;5.50;;;;;;;;;;5065676;28;20262;-58
2023/01/04 01:14:54;;;;;;;6.03;4.97;;;;;;;;;;5057104;28;20233;-58
2023/01/04 01:17:21;;;;;;;5.60;5.00;;;;;;;;;;5078589;28;20354;-61
2023/01/04 01:19:48;;;;;;;9.00;5.53;;;;;;;;;;5081599;28;20279;-58
2023/01/04 01:22:15;;;;;;;6.53;4.80;;;;;;;;;;5079561;28;20234;-58
2023/01/04 01:24:41;;;;;;;5.00;4.60;;;;;;;;;;5076936;28;20310;-58
2023/01/04 01:27:08;;;;;;;5.57;5.07;;;;;;;;;;5078317;28;20825;-58
2023/01/04 01:29:35;;;;;;;6.47;5.10;;;;;;;;;;5078482;28;20226;-58
2023/01/04 01:32:03;;;;;;;6.13;5.13;;;;;;;;;;5081030;28;20234;-59
2023/01/04 01:34:30;;;;;;;6.70;4.80;;;;;;;;;;5088756;28;20232;-59
2023/01/04 01:36:56;;;;;;;5.73;5.13;;;;;;;;;;5090316;28;21053;-58
2023/01/04 01:39:23;;;;;;;6.27;5.50;;;;;;;;;;5085194;28;20230;-58
2023/01/04 01:41:50;;;;;;;5.77;4.90;;;;;;;;;;5084636;28;20229;-58
2023/01/04 01:44:35;;;;;;;5.40;4.70;;;;;;;;;;5084287;28;20227;-58
2023/01/04 01:47:03;;;;;;;8.00;5.00;;;;;;;;;;5077333;28;20223;-58
2023/01/04 01:49:32;;;;;;;4.87;4.40;;;;;;;;;;5082893;28;20758;-58
2023/01/04 01:51:59;;;;;;;6.43;5.33;;;;;;;;;;5080824;28;20731;-58
2023/01/04 01:54:30;;;;;;;4.97;4.30;;;;;;;;;;5081156;28;20843;-58
2023/01/04 01:56:58;;;;;;;6.70;4.50;;;;;;;;;;5077350;28;20266;-58
2023/01/04 01:59:25;;;;;;;5.40;4.87;;;;;;;;;;5082131;28;20231;-58
2023/01/04 02:01:52;;;;;;;6.83;4.97;;;;;;;;;;5078514;28;20770;-60
2023/01/04 02:04:20;;;;;;;5.40;4.30;;;;;;;;;;5080784;28;20226;-59
2023/01/04 02:06:48;;;;;;;4.67;4.27;;;;;;;;;;5072154;28;20303;-59
2023/01/04 02:09:15;;;;;;;4.50;4.07;;;;;;;;;;5079208;28;20231;-59
2023/01/04 02:11:42;;;;;;;5.27;4.53;;;;;;;;;;5080960;28;20244;-59
2023/01/04 02:16:57;;;;;;;6.23;3.93;;;;;;;;;;5083468;28;20707;-59
2023/01/04 02:19:42;;;;;;;6.47;4.20;;;;;;;;;;5080198;28;20294;-59
2023/01/04 02:22:26;;;;;;;6.33;4.07;;;;;;;;;;5078711;28;20265;-59
2023/01/04 02:25:05;;;;;;;4.37;3.87;;;;;;;;;;5072187;28;22213;-59
2023/01/04 02:27:47;;;;;;;5.03;4.50;;;;;;;;;;5078547;28;20224;-59
2023/01/04 02:30:29;;;;;;;6.13;5.00;;;;;;;;;;5080408;28;20241;-59
2023/01/04 02:33:14;;;;;;;5.90;4.80;;;;;;;;;;5083991;28;20238;-59
2023/01/04 02:35:43;;;;;;;5.20;4.73;;;;;;;;;;5086445;28;20257;-58
2023/01/04 02:38:14;;;;;;;4.97;4.57;;;;;;;;;;5081763;28;20244;-59
2023/01/04 02:40:45;;;;;;;4.47;4.07;;;;;;;;;;5084555;28;20242;-59
2023/01/04 02:46:02;;;;;;;4.60;4.20;;;;;;;;;;5083246;28;20296;-60
2023/01/04 02:51:26;;;;;;;4.63;4.13;;;;;;;;;;5083208;28;20356;-59
2023/01/04 02:53:53;;;;;;;5.80;4.13;;;;;;;;;;5083625;28;20329;-60
2023/01/04 02:56:34;;;;;;;5.60;4.40;;;;;;;;;;5084786;28;20748;-58
2023/01/04 02:59:05;;;;;;;4.70;4.17;;;;;;;;;;5080853;28;20230;-60
2023/01/04 03:07:24;;;;;;;6.13;4.90;;;;;;;;;;5081857;28;20307;-59
2023/01/04 03:09:53;;;;;;;6.97;4.80;;;;;;;;;;5082014;28;20237;-59
2023/01/04 03:12:31;;;;;;;9.67;4.47;;;;;;;;;;5085166;28;20248;-59
2023/01/04 03:15:00;;;;;;;5.60;4.90;;;;;;;;;;5083883;28;20617;-59
2023/01/04 03:17:28;;;;;;;4.80;4.30;;;;;;;;;;5085030;28;20233;-59
2023/01/04 03:19:56;;;;;;;4.93;4.43;;;;;;;;;;5083966;28;20238;-59
2023/01/04 03:36:19;;;;;;;5.77;4.60;;;;;;;;;;5079979;28;20272;-59
2023/01/04 03:49:56;;;;;;;4.70;4.30;;;;;;;;;;5083126;28;20253;-59
2023/01/04 03:52:27;;;;;;;7.30;4.90;;;;;;;;;;5080508;28;20309;-60
2023/01/04 03:54:54;;;;;;;6.17;4.53;;;;;;;;;;5072640;28;20227;-59
2023/01/04 03:57:21;;;;;;;8.07;5.00;;;;;;;;;;5073333;28;20265;-59
2023/01/04 03:59:50;;;;;;;5.33;4.83;;;;;;;;;;5091847;28;20276;-60
2023/01/04 04:02:18;;;;;;;4.57;4.10;;;;;;;;;;5087271;28;20230;-59
2023/01/04 04:10:14;;;;;;;7.03;5.20;;;;;;;;;;5091351;28;20241;-58
2023/01/04 04:12:41;;;;;;;6.30;5.07;;;;;;;;;;5085307;28;20595;-60
2023/01/04 04:15:08;;;;;;;4.67;4.27;;;;;;;;;;5082882;28;20273;-59
2023/01/04 04:17:34;;;;;;;5.93;4.47;;;;;;;;;;5081950;28;20242;-59
2023/01/04 04:20:01;;;;;;;5.03;4.47;;;;;;;;;;5082354;28;20321;-59
2023/01/04 04:22:28;;;;;;;5.43;4.63;;;;;;;;;;5081692;28;20614;-60
2023/01/04 04:24:56;;;;;;;4.97;4.50;;;;;;;;;;5081562;28;20225;-58
2023/01/04 04:27:23;;;;;;;7.40;4.67;;;;;;;;;;5084080;28;20233;-60
2023/01/04 04:29:49;;;;;;;7.03;5.47;;;;;;;;;;5084669;28;20233;-58
2023/01/04 04:32:16;;;;;;;6.83;4.50;;;;;;;;;;5082753;28;20331;-58
2023/01/04 04:34:43;;;;;;;5.33;4.80;;;;;;;;;;5085132;28;20233;-59
2023/01/04 04:37:09;;;;;;;5.07;4.57;;;;;;;;;;5081310;28;20233;-59
2023/01/04 04:39:36;;;;;;;5.87;4.57;;;;;;;;;;5083070;28;21522;-59
2023/01/04 04:42:03;;;;;;;4.57;4.13;;;;;;;;;;5077144;28;20313;-60
2023/01/04 04:44:30;;;;;;;8.77;5.37;;;;;;;;;;5082512;28;20234;-59
2023/01/04 04:46:56;;;;;;;4.90;4.40;;;;;;;;;;5082712;28;20574;-58
2023/01/04 04:49:23;;;;;;;6.93;4.53;;;;;;;;;;5081192;28;20427;-59
2023/01/04 04:51:50;;;;;;;7.27;5.00;;;;;;;;;;5073269;28;20228;-59
2023/01/04 04:54:17;;;;;;;5.37;4.83;;;;;;;;;;5083260;28;20245;-59
2023/01/04 04:56:44;;;;;;;5.80;4.77;;;;;;;;;;5080539;28;20284;-58
2023/01/04 04:59:11;;;;;;;4.47;4.07;;;;;;;;;;5081150;28;20222;-59
2023/01/04 05:01:38;;;;;;;5.73;4.57;;;;;;;;;;5083748;28;20235;-58
2023/01/04 05:04:05;;;;;;;4.43;4.07;;;;;;;;;;5081409;28;20230;-59
2023/01/04 05:06:32;;;;;;;4.17;3.83;;;;;;;;;;5081733;28;20270;-58
2023/01/04 05:08:59;;;;;;;5.60;4.20;;;;;;;;;;5082665;28;20288;-58
2023/01/04 05:14:06;;;;;;;6.33;4.63;;;;;;;;;;5076631;28;20776;-58
2023/01/04 05:16:34;;;;;;;4.17;3.77;;;;;;;;;;5082790;28;20222;-58
2023/01/04 05:19:01;;;;;;;5.97;4.97;;;;;;;;;;5081104;28;20237;-58
2023/01/04 05:21:28;;;;;;;5.07;3.97;;;;;;;;;;5082783;28;20747;-58
2023/01/04 05:23:55;;;;;;;6.40;5.00;;;;;;;;;;5081439;28;20234;-59
2023/01/04 05:26:21;;;;;;;6.47;4.37;;;;;;;;;;5081957;28;20233;-60
2023/01/04 05:28:48;;;;;;;6.80;3.93;;;;;;;;;;5082163;28;20226;-57
2023/01/04 05:31:14;;;;;;;6.20;4.13;;;;;;;;;;5078848;28;20254;-58
2023/01/04 05:33:42;;;;;;;5.43;4.10;;;;;;;;;;5079021;28;26822;-58
2023/01/04 05:36:09;;;;;;;4.97;4.47;;;;;;;;;;5080643;28;20229;-58
2023/01/04 05:38:35;;;;;;;5.47;3.83;;;;;;;;;;5080521;28;20719;-59
2023/01/04 05:41:02;;;;;;;7.67;4.33;;;;;;;;;;5082456;28;20231;-58
2023/01/04 05:43:29;;;;;;;5.83;4.30;;;;;;;;;;5081235;28;20230;-58
2023/01/04 05:45:56;;;;;;;3.83;3.43;;;;;;;;;;5080774;28;20310;-58
2023/01/04 05:48:23;;;;;;;4.60;3.93;;;;;;;;;;5076274;28;20316;-58
2023/01/04 05:50:52;;;;;;;4.70;4.20;;;;;;;;;;5074354;28;20497;-58
2023/01/04 05:53:19;;;;;;;4.70;3.73;;;;;;;;;;5076146;28;20228;-58
2023/01/04 05:55:47;;;;;;;4.43;4.00;;;;;;;;;;5081830;28;20234;-58
2023/01/04 05:58:14;;;;;;;4.43;3.90;;;;;;;;;;5081303;28;20234;-58
2023/01/04 06:00:41;;;;;;;3.87;3.53;;;;;;;;;;5079949;28;20234;-57
2023/01/04 06:03:08;;;;;;;5.57;4.30;;;;;;;;;;5081597;28;20916;-58
2023/01/04 06:05:34;;;;;;;4.13;3.77;;;;;;;;;;5082562;28;20230;-58
2023/01/04 06:08:02;;;;;;;6.40;4.13;;;;;;;;;;5080571;28;20234;-58
2023/01/04 06:10:29;;;;;;;5.77;4.43;;;;;;;;;;5080550;28;20226;-58
2023/01/04 06:12:55;;;;;;;4.97;3.47;;;;;;;;;;5081552;28;20227;-59
2023/01/04 06:15:22;;;;;;;6.67;4.40;;;;;;;;;;5082916;28;20234;-60
2023/01/04 06:17:49;;;;;;;4.87;4.40;;;;;;;;;;5082585;28;20230;-59
2023/01/04 06:20:15;;;;;;;5.60;4.13;;;;;;;;;;5079639;28;20266;-59
2023/01/04 06:22:42;;;;;;;5.27;4.00;;;;;;;;;;5083411;28;20242;-59
2023/01/04 06:25:10;;;;;;;5.83;3.67;;;;;;;;;;5081982;28;20230;-58
2023/01/04 06:27:37;;;;;;;6.97;4.07;;;;;;;;;;5078740;28;20227;-58
2023/01/04 06:30:04;;;;;;;3.33;3.03;;;;;;;;;;5080659;28;20231;-58
2023/01/04 06:32:30;;;;;;;5.03;3.80;;;;;;;;;;5082170;28;20235;-58
2023/01/04 06:34:57;;;;;;;4.43;3.33;;;;;;;;;;5081071;28;20222;-59
2023/01/04 06:37:24;;;;;;;5.10;3.50;;;;;;;;;;5079022;28;20241;-59
2023/01/04 06:39:50;;;;;;;4.97;3.53;;;;;;;;;;5080654;28;20227;-58
2023/01/04 06:45:03;;;;;;;5.27;3.70;;;;;;;;;;5073392;28;20293;-58
2023/01/04 06:47:29;;;;;;;4.03;3.73;;;;;;;;;;5081534;28;20230;-58
2023/01/04 06:49:56;;;;;;;3.83;3.27;;;;;;;;;;5088472;28;20231;-63
2023/01/04 06:52:23;;;;;;;5.37;3.00;;;;;;;;;;5084211;28;20230;-58
2023/01/04 06:54:49;;;;;;;3.40;2.90;;;;;;;;;;5083969;28;20312;-58
2023/01/04 06:57:16;;;;;;;3.63;2.90;;;;;;;;;;5087569;28;20230;-57
2023/01/04 06:59:44;;;;;;;2.80;2.57;;;;;;;;;;5096722;28;20235;-57
2023/01/04 07:02:13;;;;;;;3.73;2.83;;;;;;;;;;5098433;28;20306;-57
2023/01/04 07:04:39;;;;;;;3.03;2.67;;;;;;;;;;5101354;28;20233;-57
2023/01/04 07:07:06;;;;;;;7.37;2.90;;;;;;;;;;5103406;28;20240;-57
2023/01/04 07:09:32;;;;;;;3.73;2.70;;;;;;;;;;5098931;28;20230;-58
2023/01/04 07:11:59;;;;;;;4.83;2.60;;;;;;;;;;5086114;28;20354;-58
2023/01/04 07:14:25;;;;;;;3.97;3.57;;;;;;;;;;5093970;28;20231;-58
2023/01/04 07:16:53;;;;;;;3.17;2.83;;;;;;;;;;5090636;28;20234;-62
2023/01/04 07:19:20;;;;;;;4.80;3.67;;;;;;;;;;5090943;28;20234;-59
2023/01/04 07:21:47;;;;;;;3.93;2.90;;;;;;;;;;5087328;28;20252;-59
2023/01/04 07:24:13;;;;;;;5.60;3.20;;;;;;;;;;5076374;28;20224;-59
2023/01/04 07:26:40;;;;;;;3.60;3.10;;;;;;;;;;5084304;28;20222;-58
2023/01/04 07:29:16;;;;;;;5.20;3.60;;;;;;;;;;5083302;28;20865;-58
2023/01/04 07:31:43;;;;;;;5.23;3.50;;;;;;;;;;5081391;28;20287;-58
2023/01/04 07:34:11;;;;;;;8.30;3.33;;;;;;;;;;5086457;28;20233;-60
2023/01/04 07:36:38;;;;;;;4.70;3.13;;;;;;;;;;5084003;28;20337;-60
2023/01/04 07:39:05;;;;;;;5.87;3.43;;;;;;;;;;5083463;28;20247;-58
2023/01/04 07:41:31;;;;;;;8.40;2.97;;;;;;;;;;5089280;28;20315;-58
2023/01/04 07:44:00;;;;;;;5.57;3.50;;;;;;;;;;5087173;28;20267;-60
2023/01/04 07:46:26;;;;;;;4.50;3.13;;;;;;;;;;5088358;28;20234;-59
2023/01/04 07:48:53;;;;;;;6.37;2.67;;;;;;;;;;5092017;28;20234;-59
2023/01/04 07:51:21;;;;;;;7.50;3.70;;;;;;;;;;5090026;28;20235;-58
2023/01/04 07:53:47;;;;;;;5.20;3.10;;;;;;;;;;5087255;28;20231;-57
2023/01/04 07:56:14;;;;;;;6.33;3.40;;;;;;;;;;5076126;28;20238;-57
2023/01/04 07:58:41;;;;;;;6.87;3.70;;;;;;;;;;5089898;28;20237;-56
2023/01/04 08:01:08;;;;;;;6.37;3.63;;;;;;;;;;5094783;28;20321;-57
2023/01/04 08:03:34;;;;;;;3.93;3.57;;;;;;;;;;5095900;28;20322;-55
2023/01/04 08:06:03;;;;;;;3.77;3.30;;;;;;;;;;5081111;28;20295;-56
2023/01/04 08:08:31;;;;;;;5.63;3.23;;;;;;;;;;5078177;28;20250;-55
2023/01/04 08:11:00;;;;;;;10.23;3.73;;;;;;;;;;5082058;28;20237;-54
2023/01/04 08:13:27;;;;;;;4.57;3.20;;;;;;;;;;5075555;28;20262;-55
2023/01/04 08:15:53;;;;;;;6.40;2.87;;;;;;;;;;5080996;28;20278;-53
2023/01/04 08:18:20;;;;;;;6.07;3.37;;;;;;;;;;5076092;28;20262;-53
2023/01/04 08:20:47;;;;;;;4.33;2.63;;;;;;;;;;5084663;28;20235;-54
2023/01/04 08:23:13;;;;;;;4.43;4.03;;;;;;;;;;5083388;28;20239;-54
2023/01/04 08:25:41;;;;;;;8.17;3.30;;;;;;;;;;5079604;28;20317;-53
2023/01/04 08:28:08;;;;;;;7.00;3.93;;;;;;;;;;5084168;28;20229;-53
2023/01/04 08:30:35;;;;;;;4.20;3.30;;;;;;;;;;5079024;28;20266;-54
2023/01/04 08:33:01;;;;;;;4.63;4.17;;;;;;;;;;5078687;28;20324;-55
2023/01/04 08:35:28;;;;;;;5.23;3.83;;;;;;;;;;5078378;28;20234;-55
2023/01/04 08:37:56;;;;;;;4.30;3.33;;;;;;;;;;5079822;28;20299;-56
2023/01/04 08:40:22;;;;;;;6.70;3.60;;;;;;;;;;5079175;28;20316;-57
2023/01/04 08:42:50;;;;;;;9.17;6.07;;;;;;;;;;5082948;28;20266;-58
2023/01/04 08:45:16;;;;;;;4.33;3.63;;;;;;;;;;5084072;28;20250;-59
2023/01/04 08:47:43;;;;;;;7.33;4.40;;;;;;;;;;5082190;28;20230;-59
2023/01/04 08:50:10;;;;;;;6.47;3.83;;;;;;;;;;5076126;28;20238;-59
2023/01/04 08:52:36;;;;;;;5.20;3.70;;;;;;;;;;5081748;28;20258;-58
2023/01/04 08:55:03;;;;;;;10.20;3.93;;;;;;;;;;5083999;28;20264;-58
2023/01/04 08:57:29;;;;;;;4.23;3.80;;;;;;;;;;5079212;28;20628;-60
2023/01/04 08:59:57;;;;;;;6.37;4.13;;;;;;;;;;5082584;28;20237;-57
2023/01/04 09:02:24;;;;;;;6.17;4.70;;;;;;;;;;5082268;28;20258;-59
2023/01/04 09:04:51;;;;;;;5.53;3.70;;;;;;;;;;5080612;28;20225;-59
2023/01/04 09:07:18;;;;;;;5.80;5.27;;;;;;;;;;5077191;28;20312;-59
2023/01/04 09:09:44;;;;;;;9.37;3.77;;;;;;;;;;5075215;28;20231;-57
2023/01/04 09:12:11;;;;;;;7.33;4.60;;;;;;;;;;5078141;28;20918;-59
2023/01/04 09:14:38;;;;;;;5.47;3.90;;;;;;;;;;5080353;28;20284;-59
2023/01/04 09:17:06;;;;;;;6.70;4.57;;;;;;;;;;5077747;28;20234;-59
2023/01/04 09:19:33;;;;;;;5.33;3.60;;;;;;;;;;5078352;28;20234;-59
2023/01/04 09:21:59;;;;;;;5.40;4.30;;;;;;;;;;5071389;28;20259;-58
2023/01/04 09:24:26;;;;;;;4.90;4.40;;;;;;;;;;5072074;28;20738;-59
2023/01/04 09:26:52;;;;;;;5.07;4.57;;;;;;;;;;5069383;28;20234;-61
2023/01/04 09:29:19;;;;;;;5.73;5.13;;;;;;;;;;5070944;28;20305;-59
2023/01/04 09:31:46;;;;;;;8.47;5.43;;;;;;;;;;5075021;28;20238;-59
2023/01/04 09:34:14;;;;;;;5.43;4.93;;;;;;;;;;5079914;28;20261;-59
2023/01/04 09:36:40;;;;;;;8.57;5.00;;;;;;;;;;5074863;28;20336;-59
2023/01/04 09:39:07;;;;;;;5.83;4.93;;;;;;;;;;5079094;28;20234;-59
2023/01/04 09:41:36;;;;;;;6.50;4.77;;;;;;;;;;5083192;28;20240;-59
2023/01/04 09:44:04;;;;;;;8.50;5.53;;;;;;;;;;5066098;28;20242;-59
2023/01/04 09:46:34;;;;;;;4.40;3.93;;;;;;;;;;5076669;28;20223;-60
2023/01/04 09:49:09;;;;;;;7.57;5.07;;;;;;;;;;5077124;28;20252;-60
2023/01/04 09:51:38;;;;;;;4.97;4.50;;;;;;;;;;5085979;28;20230;-61
2023/01/04 09:54:08;;;;;;;5.60;4.90;;;;;;;;;;5086520;28;20234;-59
2023/01/04 09:56:36;;;;;;;7.47;4.90;;;;;;;;;;5087503;28;20233;-60
2023/01/04 09:59:05;;;;;;;5.93;5.43;;;;;;;;;;5076415;28;20239;-61
2023/01/04 10:01:35;;;;;;;7.70;5.03;;;;;;;;;;5070762;28;20237;-60
2023/01/04 10:04:07;;;;;;;7.50;4.97;;;;;;;;;;5079169;28;20230;-57
2023/01/04 10:06:35;;;;;;;9.13;5.13;;;;;;;;;;5077842;28;20234;-58
2023/01/04 10:09:04;;;;;;;9.03;4.97;;;;;;;;;;5075219;28;20631;-60
2023/01/04 10:11:41;;;;;;;11.03;6.20;;;;;;;;;;5081991;28;20719;-59
2023/01/04 10:14:14;;;;;;;7.07;5.27;;;;;;;;;;5082514;28;20320;-59
2023/01/04 10:16:48;;;;;;;5.80;5.07;;;;;;;;;;5077589;28;20230;-58
2023/01/04 10:19:21;;;;;;;6.83;5.63;;;;;;;;;;5082120;28;20773;-57
2023/01/04 10:21:50;;;;;;;6.13;4.63;;;;;;;;;;5078370;28;20321;-59
2023/01/04 10:24:31;;;;;;;6.67;5.27;;;;;;;;;;5069598;28;20723;-57
2023/01/04 10:27:00;;;;;;;5.70;4.57;;;;;;;;;;5075811;28;20645;-60
2023/01/04 10:29:36;;;;;;;9.03;5.23;;;;;;;;;;5077912;28;20235;-59
2023/01/04 10:32:05;;;;;;;5.83;4.47;;;;;;;;;;5063516;28;20240;-57
2023/01/04 10:34:33;;;;;;;6.47;5.60;;;;;;;;;;5055560;28;20227;-58
2023/01/04 10:37:00;;;;;;;6.73;5.10;;;;;;;;;;5055316;28;20656;-57
2023/01/04 10:39:30;;;;;;;7.83;5.00;;;;;;;;;;5073416;28;20234;-58
2023/01/04 10:41:57;;;;;;;5.90;5.30;;;;;;;;;;5087962;28;20648;-57
2023/01/04 10:44:26;;;;;;;5.97;4.53;;;;;;;;;;5087961;28;20318;-59
2023/01/04 10:46:56;;;;;;;5.93;4.70;;;;;;;;;;5083856;28;20265;-58
2023/01/04 10:49:26;;;;;;;6.83;5.03;;;;;;;;;;5079968;28;20222;-57
2023/01/04 10:51:57;;;;;;;6.47;4.77;;;;;;;;;;5083883;28;20239;-66
2023/01/04 10:54:27;;;;;;;5.60;4.83;;;;;;;;;;5081108;28;20306;-58
2023/01/04 10:56:59;;;;;;;5.73;4.90;;;;;;;;;;5077801;28;20314;-60
2023/01/04 10:59:29;;;;;;;10.30;4.70;;;;;;;;;;5077581;28;20241;-59
2023/01/04 11:01:58;;;;;;;6.80;4.80;;;;;;;;;;5081320;28;20353;-55
2023/01/04 11:04:28;;;;;;;10.07;5.17;;;;;;;;;;5078659;28;20239;-57
2023/01/04 11:06:57;;;;;;;6.47;5.03;;;;;;;;;;5072493;28;20248;-56
2023/01/04 11:09:24;;;;;;;6.20;5.30;;;;;;;;;;5085750;28;20226;-55
2023/01/04 11:11:51;;;;;;;8.03;5.33;;;;;;;;;;5078172;28;20234;-54
2023/01/04 11:14:18;;;;;;;5.13;4.17;;;;;;;;;;5076676;28;20787;-54
2023/01/04 11:16:47;;;;;;;6.13;5.17;;;;;;;;;;5082039;28;20233;-55
2023/01/04 11:19:14;;;;;;;6.37;4.37;;;;;;;;;;5078157;28;20243;-54
2023/01/04 11:21:44;;;;;;;5.17;4.67;;;;;;;;;;5079995;28;20229;-53
2023/01/04 11:24:11;;;;;;;4.73;4.13;;;;;;;;;;5082326;28;20247;-52
2023/01/04 11:26:39;;;;;;;8.60;4.90;;;;;;;;;;5081371;28;20234;-53
2023/01/04 11:29:06;;;;;;;5.17;4.67;;;;;;;;;;5081425;28;20231;-54
2023/01/04 11:31:39;;;;;;;6.87;4.53;;;;;;;;;;5080017;28;20226;-53
2023/01/04 11:34:06;;;;;;;5.07;4.10;;;;;;;;;;5079264;28;20234;-54
2023/01/04 11:36:34;;;;;;;4.47;4.03;;;;;;;;;;5072716;28;20223;-54
2023/01/04 11:39:00;;;;;;;4.87;4.37;;;;;;;;;;5079597;28;20237;-54
2023/01/04 11:41:27;;;;;;;4.50;4.00;;;;;;;;;;5074940;28;20964;-56
2023/01/04 11:43:56;;;;;;;7.53;5.00;;;;;;;;;;5074526;28;20238;-58
2023/01/04 11:46:24;;;;;;;6.70;4.50;;;;;;;;;;5071286;28;20767;-61
2023/01/04 11:48:52;;;;;;;6.17;4.73;;;;;;;;;;5073172;28;20238;-58
2023/01/04 11:51:20;;;;;;;4.67;4.23;;;;;;;;;;5077733;28;20296;-57
2023/01/04 11:53:56;;;;;;;8.23;4.33;;;;;;;;;;5079416;28;20326;-57
2023/01/04 11:56:23;;;;;;;8.50;5.47;;;;;;;;;;5080367;28;20309;-57
2023/01/04 11:59:03;;;;;;;5.97;4.83;;;;;;;;;;5074865;28;20231;-56
2023/01/04 12:01:31;;;;;;;5.37;4.90;;;;;;;;;;5074446;28;20230;-55
2023/01/04 12:03:59;;;;;;;5.20;4.70;;;;;;;;;;5070259;28;20304;-55
2023/01/04 12:06:30;;;;;;;4.90;4.33;;;;;;;;;;5080132;28;20242;-54
2023/01/04 12:08:57;;;;;;;5.60;4.07;;;;;;;;;;5078593;28;20310;-54
2023/01/04 12:11:26;;;;;;;4.70;3.90;;;;;;;;;;5086239;28;20291;-60
2023/01/04 12:13:52;;;;;;;8.90;4.77;;;;;;;;;;5084217;28;20325;-55
2023/01/04 12:16:24;;;;;;;6.37;3.80;;;;;;;;;;5081612;28;20302;-58
2023/01/04 12:18:50;;;;;;;4.53;3.37;;;;;;;;;;5084492;28;20309;-57
2023/01/04 12:21:20;;;;;;;7.63;3.57;;;;;;;;;;5076524;28;20235;-58
2023/01/04 12:23:47;;;;;;;4.70;3.93;;;;;;;;;;5080518;28;20615;-58
2023/01/04 12:26:13;;;;;;;5.57;4.53;;;;;;;;;;5083474;28;20799;-58
2023/01/04 12:28:40;;;;;;;4.53;4.13;;;;;;;;;;5071921;28;20235;-58
2023/01/04 12:31:26;;;;;;;7.23;3.83;;;;;;;;;;5073865;28;20262;-57
2023/01/04 12:33:54;;;;;;;4.20;3.80;;;;;;;;;;5073529;28;20620;-58
2023/01/04 12:36:42;;;;;;;5.63;4.10;;;;;;;;;;5079535;28;20230;-60
2023/01/04 12:39:42;;;;;;;5.80;3.97;;;;;;;;;;5074904;28;20246;-58
2023/01/04 12:42:10;;;;;;;5.93;3.87;;;;;;;;;;5031528;28;20738;-57
2023/01/04 12:44:55;;;;;;;4.10;3.80;;;;;;;;;;5039119;28;20608;-58
2023/01/04 12:50:26;;;;;;;6.23;4.17;;;;;;;;;;5072208;28;20246;-60
2023/01/04 12:52:54;;;;;;;6.10;3.67;;;;;;;;;;5077160;28;20230;-59
2023/01/04 12:55:25;;;;;;;5.37;4.50;;;;;;;;;;5077334;28;20314;-57
2023/01/04 12:57:52;;;;;;;5.43;4.07;;;;;;;;;;5073722;28;20235;-59
2023/01/04 13:00:19;;;;;;;6.23;4.37;;;;;;;;;;5075365;28;20261;-60
2023/01/04 13:02:46;;;;;;;5.10;3.87;;;;;;;;;;5071950;28;20249;-57
2023/01/04 13:05:32;;;;;;;4.83;4.00;;;;;;;;;;5077526;28;20230;-59
2023/01/04 13:08:00;;;;;;;4.57;3.93;;;;;;;;;;5076558;28;20235;-58
2023/01/04 13:10:30;;;;;;;4.87;4.37;;;;;;;;;;5079434;28;20742;-59
2023/01/04 13:13:21;;;;;;;4.47;4.07;;;;;;;;;;5079355;28;20227;-59
2023/01/04 13:15:53;;;;;;;4.60;4.00;;;;;;;;;;5076320;28;20230;-58
2023/01/04 13:18:28;;;;;;;4.73;4.23;;;;;;;;;;5077465;28;20253;-59
2023/01/04 13:20:55;;;;;;;4.73;4.33;;;;;;;;;;5074782;28;20335;-65
2023/01/04 13:23:24;;;;;;;5.73;4.10;;;;;;;;;;5076329;28;20244;-58
2023/01/04 13:25:50;;;;;;;4.43;4.03;;;;;;;;;;5074847;28;20854;-57
2023/01/04 13:28:17;;;;;;;4.97;4.50;;;;;;;;;;5080324;28;20241;-56
2023/01/04 13:30:45;;;;;;;4.37;3.73;;;;;;;;;;5079887;28;22279;-54
2023/01/04 13:33:15;;;;;;;6.50;5.97;;;;;;;;;;5077708;28;20287;-56
2023/01/04 13:35:42;;;;;;;4.63;4.17;;;;;;;;;;5072261;28;20607;-57
2023/01/04 13:38:12;;;;;;;6.53;5.07;;;;;;;;;;5076054;28;20237;-57
2023/01/04 13:40:44;;;;;;;5.47;4.43;;;;;;;;;;5074020;28;20236;-62
2023/01/04 13:43:17;;;;;;;7.27;4.70;;;;;;;;;;5074633;28;20420;-58
2023/01/04 13:45:51;;;;;;;4.87;4.47;;;;;;;;;;5078715;28;20254;-58
2023/01/04 13:48:18;;;;;;;5.60;4.13;;;;;;;;;;5071461;28;20873;-58
2023/01/04 13:50:46;;;;;;;4.30;3.90;;;;;;;;;;5074299;28;20237;-57
2023/01/04 13:53:20;;;;;;;4.57;4.17;;;;;;;;;;5071682;28;20231;-60
2023/01/04 13:55:51;;;;;;;6.40;4.30;;;;;;;;;;5073580;28;20227;-61
2023/01/04 13:58:19;;;;;;;5.47;4.47;;;;;;;;;;5081028;28;20244;-59
2023/01/04 14:00:48;;;;;;;5.40;4.00;;;;;;;;;;5081351;28;20243;-59
2023/01/04 14:03:19;;;;;;;4.83;4.33;;;;;;;;;;5080347;28;20261;-60
2023/01/04 14:05:48;;;;;;;4.20;3.80;;;;;;;;;;5074145;28;20307;-58
2023/01/04 14:08:18;;;;;;;3.97;3.33;;;;;;;;;;5076940;28;20226;-60
2023/01/04 14:10:45;;;;;;;5.23;4.27;;;;;;;;;;5074981;28;20564;-60
2023/01/04 14:13:15;;;;;;;5.27;4.87;;;;;;;;;;5075618;28;20318;-57
2023/01/04 14:15:42;;;;;;;4.20;3.80;;;;;;;;;;5073722;28;20591;-58
2023/01/04 14:18:24;;;;;;;3.93;3.50;;;;;;;;;;5082095;28;20236;-56
2023/01/04 14:20:51;;;;;;;4.93;4.13;;;;;;;;;;5083709;28;20234;-56
2023/01/04 14:23:37;;;;;;;5.87;3.70;;;;;;;;;;5079349;28;20239;-60
2023/01/04 14:26:04;;;;;;;3.83;3.53;;;;;;;;;;5080690;28;20325;-55
2023/01/04 14:28:35;;;;;;;4.17;3.87;;;;;;;;;;5082574;28;20246;-56
2023/01/04 14:31:21;;;;;;;4.07;3.73;;;;;;;;;;5079599;28;20321;-55
2023/01/04 14:33:48;;;;;;;3.33;3.03;;;;;;;;;;5083631;28;20265;-53
2023/01/04 14:36:18;;;;;;;4.33;3.93;;;;;;;;;;5086966;28;20298;-55
2023/01/04 14:38:45;;;;;;;6.07;4.13;;;;;;;;;;5081282;28;20223;-54
2023/01/04 14:41:18;;;;;;;3.67;3.37;;;;;;;;;;5083361;28;20249;-54
2023/01/04 14:43:47;;;;;;;3.90;3.43;;;;;;;;;;5076511;28;20261;-54
2023/01/04 14:46:13;;;;;;;3.83;3.30;;;;;;;;;;5075674;28;20243;-54
2023/01/04 14:48:40;;;;;;;4.23;3.10;;;;;;;;;;5080187;28;20230;-54
2023/01/04 14:51:07;;;;;;;4.83;3.30;;;;;;;;;;5073058;28;20648;-54
2023/01/04 14:53:33;;;;;;;4.07;3.57;;;;;;;;;;5066081;28;20237;-54
2023/01/04 14:56:00;;;;;;;4.67;3.13;;;;;;;;;;5072937;28;20270;-55
2023/01/04 14:58:26;;;;;;;2.73;2.53;;;;;;;;;;5078411;28;20606;-54
2023/01/04 15:00:54;;;;;;;3.23;2.93;;;;;;;;;;5070249;28;20230;-54
2023/01/04 15:03:20;;;;;;;3.50;3.20;;;;;;;;;;5067793;28;20296;-56
2023/01/04 15:05:47;;;;;;;3.57;2.93;;;;;;;;;;5071200;28;20237;-55
2023/01/04 15:08:13;;;;;;;2.70;2.50;;;;;;;;;;5074577;28;20254;-56
2023/01/04 15:10:40;;;;;;;4.33;2.60;;;;;;;;;;5071027;28;20241;-56
2023/01/04 15:13:06;;;;;;;3.10;2.77;;;;;;;;;;5067154;28;20733;-57
2023/01/04 15:15:32;;;;;;;2.47;2.20;;;;;;;;;;5073229;28;20231;-57
2023/01/04 15:18:00;;;;;;;3.97;2.43;;;;;;;;;;5062351;28;20316;-59
2023/01/04 15:20:27;;;;;;;3.03;2.53;;;;;;;;;;5073263;28;20258;-60
2023/01/04 15:22:53;;;;;;;3.13;2.80;;;;;;;;;;5073156;28;20280;-59
2023/01/04 15:25:19;;;;;;;2.90;2.57;;;;;;;;;;5077154;28;20301;-60
2023/01/04 15:27:46;;;;;;;3.13;1.90;;;;;;;;;;5076486;28;20607;-60
2023/01/04 15:30:13;;;;;;;2.23;1.90;;;;;;;;;;5072374;28;20314;-57
2023/01/04 15:32:39;;;;;;;3.63;2.90;;;;;;;;;;5075650;28;20241;-59
2023/01/04 15:35:07;;;;;;;3.10;2.63;;;;;;;;;;5072604;28;20233;-58
2023/01/04 15:37:34;;;;;;;2.97;2.67;;;;;;;;;;5074502;28;20230;-60
2023/01/04 15:40:00;;;;;;;3.90;2.77;;;;;;;;;;5074338;28;20251;-59
2023/01/04 15:45:11;;;;;;;2.53;2.03;;;;;;;;;;5070005;28;20723;-60
2023/01/04 15:47:37;;;;;;;2.13;1.97;;;;;;;;;;5073879;28;20697;-61